createdAt,value
2018-02-16T00:00:37.708Z,25.50
2018-02-16T00:03:05.620Z,25.17
2018-02-16T00:05:33.516Z,20.70
2018-02-16T00:08:02.444Z,18.70
2018-02-16T00:10:30.373Z,19.87
2018-02-16T00:12:59.248Z,19.92
2018-02-16T00:15:27.176Z,21.90
2018-02-16T00:17:55.075Z,21.05
2018-02-16T00:20:22.964Z,22.05
2018-02-16T00:22:50.877Z,17.67
2018-02-16T00:25:18.785Z,20.85
2018-02-16T00:27:46.692Z,18.90
2018-02-16T00:30:14.580Z,23.30
2018-02-16T00:32:42.475Z,17.20
2018-02-16T00:35:10.357Z,18.20
2018-02-16T00:37:38.250Z,18.85
2018-02-16T00:40:06.145Z,23.48
2018-02-16T00:42:34.040Z,18.92
2018-02-16T00:45:01.936Z,18.67
2018-02-16T00:47:29.836Z,21.80
2018-02-16T00:49:57.731Z,21.83
2018-02-16T00:52:25.604Z,24.75
2018-02-16T00:54:53.511Z,21.80
2018-02-16T00:57:21.440Z,19.52
2018-02-16T00:59:49.355Z,18.83
2018-02-16T01:02:17.276Z,23.10
2018-02-16T01:04:45.159Z,22.60
2018-02-16T01:07:13.053Z,21.90
2018-02-16T01:09:40.948Z,25.67
2018-02-16T01:12:08.832Z,25.75
2018-02-16T01:14:36.728Z,26.48
2018-02-16T01:17:04.620Z,25.42
2018-02-16T01:19:32.498Z,27.17
2018-02-16T01:22:00.405Z,34.10
2018-02-16T01:24:28.314Z,30.02
2018-02-16T01:26:56.200Z,27.65
2018-02-16T01:29:24.096Z,36.90
2018-02-16T01:31:51.992Z,33.83
2018-02-16T01:34:19.874Z,26.85
2018-02-16T01:36:47.784Z,31.27
2018-02-16T01:39:15.676Z,23.98
2018-02-16T01:41:43.564Z,27.35
2018-02-16T01:44:11.452Z,36.40
2018-02-16T01:46:39.344Z,29.00
2018-02-16T01:49:07.235Z,25.52
2018-02-16T01:51:35.149Z,26.65
2018-02-16T01:54:03.048Z,27.65
2018-02-16T01:56:30.951Z,33.45
2018-02-16T01:58:58.854Z,28.40
2018-02-16T02:01:26.763Z,29.85
2018-02-16T02:03:54.658Z,27.83
2018-02-16T02:06:22.556Z,27.73
2018-02-16T02:08:50.456Z,27.40
2018-02-16T02:11:18.352Z,29.30
2018-02-16T02:13:46.257Z,26.40
2018-02-16T02:16:14.152Z,24.92
2018-02-16T02:18:42.035Z,27.40
2018-02-16T02:21:10.952Z,29.77
2018-02-16T02:23:38.865Z,23.65
2018-02-16T02:26:06.752Z,24.00
2018-02-16T02:28:35.756Z,26.17
2018-02-16T02:31:03.644Z,23.77
2018-02-16T02:33:31.541Z,24.40
2018-02-16T02:35:59.436Z,26.55
2018-02-16T02:38:27.336Z,24.02
2018-02-16T02:40:55.212Z,21.92
2018-02-16T02:43:23.108Z,25.83
2018-02-16T02:45:50.992Z,26.42
2018-02-16T02:48:18.876Z,27.13
2018-02-16T02:50:46.788Z,20.35
2018-02-16T02:53:14.700Z,21.75
2018-02-16T02:55:42.595Z,20.25
2018-02-16T02:58:11.573Z,19.87
2018-02-16T03:00:39.507Z,19.90
2018-02-16T03:03:07.439Z,22.92
2018-02-16T03:05:35.325Z,22.05
2018-02-16T03:08:03.248Z,18.67
2018-02-16T03:10:31.140Z,24.35
2018-02-16T03:12:59.037Z,20.42
2018-02-16T03:15:26.955Z,18.60
2018-02-16T03:17:54.845Z,23.55
2018-02-16T03:20:22.788Z,25.12
2018-02-16T03:22:50.705Z,20.85
2018-02-16T03:25:18.584Z,20.58
2018-02-16T03:27:46.660Z,20.08
2018-02-16T03:30:14.580Z,17.90
2018-02-16T03:32:42.464Z,19.48
2018-02-16T03:35:10.363Z,18.48
2018-02-16T03:37:38.329Z,15.82
2018-02-16T03:40:07.268Z,19.92
2018-02-16T03:42:35.176Z,19.12
2018-02-16T03:45:03.076Z,17.15
2018-02-16T03:47:30.984Z,21.50
2018-02-16T03:49:59.073Z,16.87
2018-02-16T03:52:27.052Z,17.58
2018-02-16T03:54:54.944Z,17.98
2018-02-16T03:57:22.821Z,25.20
2018-02-16T03:59:50.731Z,15.60
2018-02-16T04:02:18.612Z,15.02
2018-02-16T04:04:46.496Z,15.60
2018-02-16T04:07:14.412Z,18.87
2018-02-16T04:09:42.304Z,16.98
2018-02-16T04:12:10.196Z,15.20
2018-02-16T04:14:38.120Z,19.35
2018-02-16T04:17:06.018Z,18.42
2018-02-16T04:19:33.916Z,17.50
2018-02-16T04:22:01.828Z,15.15
2018-02-16T04:24:29.710Z,18.20
2018-02-16T04:26:57.643Z,17.10
2018-02-16T04:29:25.535Z,17.80
2018-02-16T04:31:53.411Z,16.67
2018-02-16T04:34:21.357Z,17.75
2018-02-16T04:36:49.254Z,16.35
2018-02-16T04:39:17.132Z,18.70
2018-02-16T04:41:45.024Z,24.55
2018-02-16T04:44:12.928Z,17.60
2018-02-16T04:46:40.828Z,19.98
2018-02-16T04:49:08.728Z,20.40
2018-02-16T04:51:36.612Z,18.90
2018-02-16T04:54:04.514Z,15.43
2018-02-16T04:56:32.408Z,19.40
2018-02-16T04:59:00.316Z,21.02
2018-02-16T05:01:28.226Z,19.52
2018-02-16T05:03:57.105Z,16.12
2018-02-16T05:06:25.008Z,24.90
2018-02-16T05:08:52.903Z,17.67
2018-02-16T05:11:20.788Z,17.48
2018-02-16T05:13:48.697Z,18.52
2018-02-16T05:16:16.595Z,17.17
2018-02-16T05:18:44.484Z,19.70
2018-02-16T05:21:12.391Z,19.60
2018-02-16T05:23:40.267Z,23.23
2018-02-16T05:26:08.164Z,21.65
2018-02-16T05:28:36.077Z,23.87
2018-02-16T05:31:03.967Z,19.77
2018-02-16T05:33:32.931Z,16.98
2018-02-16T05:36:00.905Z,19.45
2018-02-16T05:38:28.793Z,17.23
2018-02-16T05:40:56.696Z,22.02
2018-02-16T05:43:24.605Z,23.52
2018-02-16T05:45:52.491Z,24.23
2018-02-16T05:48:20.400Z,17.83
2018-02-16T05:50:48.356Z,25.40
2018-02-16T05:53:16.238Z,23.00
2018-02-16T05:55:44.142Z,18.42
2018-02-16T05:58:12.036Z,21.48
2018-02-16T06:00:39.918Z,19.87
2018-02-16T06:03:07.824Z,23.77
2018-02-16T06:05:35.764Z,19.55
2018-02-16T06:08:03.648Z,20.52
2018-02-16T06:10:31.551Z,27.37
2018-02-16T06:12:59.444Z,22.05
2018-02-16T06:15:27.340Z,23.77
2018-02-16T06:17:55.216Z,17.98
2018-02-16T06:20:23.120Z,18.80
2018-02-16T06:22:51.020Z,24.37
2018-02-16T06:25:18.934Z,22.10
2018-02-16T06:27:46.839Z,22.50
2018-02-16T06:30:14.759Z,23.80
2018-02-16T06:32:42.644Z,23.70
2018-02-16T06:35:11.572Z,23.80
2018-02-16T06:37:39.474Z,20.15
2018-02-16T06:40:07.376Z,26.25
2018-02-16T06:42:35.268Z,32.00
2018-02-16T06:45:03.163Z,30.30
2018-02-16T06:47:31.055Z,24.37
2018-02-16T06:49:58.952Z,29.92
2018-02-16T06:52:26.860Z,23.08
2018-02-16T06:54:54.756Z,27.35
2018-02-16T06:57:22.648Z,30.20
2018-02-16T06:59:50.549Z,25.15
2018-02-16T07:02:19.495Z,21.73
2018-02-16T07:04:47.424Z,27.20
2018-02-16T07:07:15.336Z,16.73
2018-02-16T07:09:43.220Z,23.92
2018-02-16T07:12:11.120Z,24.33
2018-02-16T07:14:39.033Z,19.85
2018-02-16T07:17:06.918Z,18.40
2018-02-16T07:19:34.824Z,15.77
2018-02-16T07:22:02.731Z,18.02
2018-02-16T07:24:30.624Z,18.95
2018-02-16T07:26:58.527Z,23.87
2018-02-16T07:29:26.436Z,17.17
2018-02-16T07:31:54.322Z,18.40
2018-02-16T07:34:22.204Z,26.73
2018-02-16T07:36:50.115Z,17.73
2018-02-16T07:39:17.999Z,22.87
2018-02-16T07:41:45.913Z,21.37
2018-02-16T07:44:13.816Z,13.55
2018-02-16T07:46:41.700Z,26.08
2018-02-16T07:49:09.592Z,21.48
2018-02-16T07:51:37.503Z,21.50
2018-02-16T07:54:05.399Z,23.55
2018-02-16T07:56:33.292Z,26.48
2018-02-16T07:59:01.192Z,22.73
2018-02-16T08:01:29.090Z,21.17
2018-02-16T08:03:56.984Z,22.23
2018-02-16T08:06:24.888Z,20.45
2018-02-16T08:08:52.772Z,19.23
2018-02-16T08:11:20.676Z,14.48
2018-02-16T08:13:48.575Z,15.70
2018-02-16T08:16:17.486Z,17.58
2018-02-16T08:18:45.394Z,15.70
2018-02-16T08:21:13.313Z,16.70
2018-02-16T08:23:41.212Z,31.00
2018-02-16T08:26:09.136Z,33.88
2018-02-16T08:28:37.020Z,24.45
2018-02-16T08:31:04.936Z,39.05
2018-02-16T08:33:32.855Z,46.00
2018-02-16T08:36:00.769Z,24.10
2018-02-16T08:38:28.679Z,28.95
2018-02-16T08:40:57.628Z,18.50
2018-02-16T08:43:25.540Z,20.75
2018-02-16T08:45:53.435Z,28.90
2018-02-16T08:48:21.352Z,14.15
2018-02-16T08:50:49.239Z,24.10
2018-02-16T08:53:17.128Z,18.23
2018-02-16T08:55:45.054Z,17.90
2018-02-16T08:58:12.949Z,16.15
2018-02-16T09:00:40.855Z,33.75
2018-02-16T09:03:08.784Z,15.13
2018-02-16T09:05:36.667Z,18.85
2018-02-16T09:08:04.559Z,26.00
2018-02-16T09:10:32.476Z,23.73
2018-02-16T09:13:01.443Z,22.95
2018-02-16T09:15:29.324Z,25.33
2018-02-16T09:17:57.244Z,19.75
2018-02-16T09:20:25.120Z,16.45
2018-02-16T09:22:53.021Z,16.02
2018-02-16T09:25:20.932Z,24.02
2018-02-16T09:27:48.832Z,12.82
2018-02-16T09:30:16.744Z,13.88
2018-02-16T09:32:44.652Z,14.10
2018-02-16T09:35:12.544Z,23.30
2018-02-16T09:37:42.974Z,19.08
2018-02-16T09:40:11.454Z,32.88
2018-02-16T09:42:39.332Z,22.30
2018-02-16T09:45:07.245Z,23.98
2018-02-16T09:47:35.158Z,24.05
2018-02-16T09:50:03.058Z,26.35
2018-02-16T09:52:30.958Z,23.75
2018-02-16T09:54:59.688Z,19.83
2018-02-16T09:57:28.567Z,32.42
2018-02-16T09:59:56.475Z,21.05
2018-02-16T10:02:24.384Z,22.33
2018-02-16T10:04:52.280Z,22.17
2018-02-16T10:07:20.176Z,18.55
2018-02-16T10:09:48.070Z,19.27
2018-02-16T10:12:15.948Z,21.08
2018-02-16T10:14:43.936Z,21.62
2018-02-16T10:17:11.839Z,19.90
2018-02-16T10:19:39.748Z,20.25
2018-02-16T10:22:07.684Z,23.12
2018-02-16T10:24:35.663Z,20.55
2018-02-16T10:27:03.583Z,15.65
2018-02-16T10:29:31.476Z,21.15
2018-02-16T10:31:59.368Z,18.10
2018-02-16T10:34:27.268Z,19.20
2018-02-16T10:36:55.177Z,16.98
2018-02-16T10:39:23.064Z,18.30
2018-02-16T10:41:50.997Z,21.40
2018-02-16T10:44:18.895Z,31.12
2018-02-16T10:46:46.776Z,37.95
2018-02-16T10:49:15.764Z,27.98
2018-02-16T10:51:43.668Z,28.85
2018-02-16T10:54:11.567Z,29.67
2018-02-16T10:56:39.473Z,22.67
2018-02-16T10:59:07.356Z,33.03
2018-02-16T11:01:41.543Z,26.65
2018-02-16T11:04:15.536Z,26.77
2018-02-16T11:06:48.412Z,27.75
2018-02-16T11:09:20.188Z,24.67
2018-02-16T11:11:48.084Z,29.60
2018-02-16T11:14:16.016Z,21.35
2018-02-16T11:16:43.906Z,27.48
2018-02-16T11:19:11.816Z,29.45
2018-02-16T11:21:39.746Z,24.08
2018-02-16T11:24:07.644Z,26.33
2018-02-16T11:26:35.583Z,26.12
2018-02-16T11:29:03.502Z,23.92
2018-02-16T11:31:31.396Z,28.35
2018-02-16T11:33:59.304Z,20.83
2018-02-16T11:36:27.199Z,21.58
2018-02-16T11:38:55.088Z,25.58
2018-02-16T11:41:23.000Z,21.40
2018-02-16T11:43:50.919Z,20.52
2018-02-16T11:46:18.820Z,20.15
2018-02-16T11:48:46.721Z,21.50
2018-02-16T11:51:14.631Z,21.65
2018-02-16T11:53:42.553Z,19.23
2018-02-16T11:56:10.468Z,28.23
2018-02-16T11:58:38.371Z,23.25
2018-02-16T12:01:06.273Z,19.60
2018-02-16T12:03:34.188Z,20.62
2018-02-16T12:06:02.092Z,22.15
2018-02-16T12:08:29.980Z,19.17
2018-02-16T12:10:57.885Z,28.95
2018-02-16T12:13:25.792Z,25.10
2018-02-16T12:15:53.692Z,17.75
2018-02-16T12:18:21.620Z,23.23
2018-02-16T12:20:49.532Z,22.08
2018-02-16T12:23:17.426Z,21.42
2018-02-16T12:25:45.340Z,23.40
2018-02-16T12:28:13.254Z,21.60
2018-02-16T12:30:41.139Z,28.50
2018-02-16T12:33:09.052Z,27.08
2018-02-16T12:35:36.960Z,17.70
2018-02-16T12:38:04.876Z,26.90
2018-02-16T12:40:32.793Z,21.17
2018-02-16T12:43:00.696Z,29.42
2018-02-16T12:45:28.599Z,23.83
2018-02-16T12:47:56.504Z,27.37
2018-02-16T12:50:25.488Z,23.83
2018-02-16T12:52:53.388Z,20.30
2018-02-16T12:55:21.304Z,24.95
2018-02-16T12:57:49.200Z,24.12
2018-02-16T13:00:17.948Z,22.40
2018-02-16T13:02:45.842Z,25.42
2018-02-16T13:05:13.768Z,23.33
2018-02-16T13:07:41.684Z,23.27
2018-02-16T13:10:09.572Z,24.77
2018-02-16T13:12:37.492Z,27.13
2018-02-16T13:15:05.409Z,23.62
2018-02-16T13:17:33.296Z,24.10
2018-02-16T13:20:01.205Z,20.40
2018-02-16T13:22:29.128Z,26.15
2018-02-16T13:24:57.008Z,23.55
2018-02-16T13:27:24.913Z,23.48
2018-02-16T13:29:52.836Z,24.98
2018-02-16T13:32:20.747Z,21.37
2018-02-16T13:34:48.648Z,26.95
2018-02-16T13:37:17.564Z,22.42
2018-02-16T13:39:45.516Z,19.85
2018-02-16T13:42:13.443Z,19.83
2018-02-16T13:44:41.364Z,19.35
2018-02-16T13:47:09.273Z,21.83
2018-02-16T13:49:37.179Z,20.10
2018-02-16T13:52:05.084Z,10.43
2018-02-16T13:54:32.995Z,13.13
2018-02-16T13:57:00.902Z,8.25
2018-02-16T13:59:28.806Z,12.85
2018-02-16T14:01:56.708Z,17.42
2018-02-16T14:04:24.627Z,11.88
2018-02-16T14:06:53.508Z,9.80
2018-02-16T14:09:21.467Z,13.38
2018-02-16T14:11:49.376Z,11.65
2018-02-16T14:14:17.261Z,7.95
2018-02-16T14:16:45.164Z,11.88
2018-02-16T14:19:13.069Z,11.40
2018-02-16T14:21:40.956Z,7.53
2018-02-16T14:24:08.864Z,9.65
2018-02-16T14:26:36.772Z,17.75
2018-02-16T14:29:04.660Z,17.67
2018-02-16T14:31:32.567Z,13.43
2018-02-16T14:34:00.448Z,11.05
2018-02-16T14:36:28.340Z,12.63
2018-02-16T14:38:56.266Z,10.52
2018-02-16T14:41:24.144Z,7.85
2018-02-16T14:43:52.038Z,14.32
2018-02-16T14:46:19.960Z,11.63
2018-02-16T14:48:47.857Z,9.48
2018-02-16T14:51:15.744Z,9.52
2018-02-16T14:53:43.667Z,7.53
2018-02-16T14:56:11.560Z,8.32
2018-02-16T14:58:39.456Z,7.97
2018-02-16T15:01:07.368Z,10.07
2018-02-16T15:03:35.284Z,10.60
2018-02-16T15:06:03.169Z,9.95
2018-02-16T15:08:31.102Z,8.65
2018-02-16T15:11:00.006Z,8.65
2018-02-16T15:13:27.904Z,6.65
2018-02-16T15:15:55.816Z,10.07
2018-02-16T15:18:23.703Z,8.10
2018-02-16T15:20:51.588Z,7.50
2018-02-16T15:23:19.524Z,8.32
2018-02-16T15:25:47.415Z,10.43
2018-02-16T15:28:15.288Z,6.12
2018-02-16T15:30:43.196Z,5.43
2018-02-16T15:33:11.107Z,4.05
2018-02-16T15:35:38.997Z,7.25
2018-02-16T15:38:06.912Z,6.12
2018-02-16T15:40:34.792Z,11.10
2018-02-16T15:43:02.680Z,11.40
2018-02-16T15:45:30.608Z,8.90
2018-02-16T15:47:58.507Z,9.20
2018-02-16T15:50:26.411Z,19.10
2018-02-16T15:52:54.328Z,7.95
2018-02-16T15:55:22.212Z,10.65
2018-02-16T15:57:50.096Z,6.82
2018-02-16T16:00:18.017Z,7.37
2018-02-16T16:02:45.896Z,6.25
2018-02-16T16:05:14.848Z,9.10
2018-02-16T16:07:42.752Z,8.70
2018-02-16T16:10:10.628Z,15.02
2018-02-16T16:12:38.512Z,6.95
2018-02-16T16:15:06.424Z,10.50
2018-02-16T16:17:34.308Z,8.23
2018-02-16T16:20:02.208Z,6.97
2018-02-16T16:22:31.239Z,10.48
2018-02-16T16:24:59.120Z,3.10
2018-02-16T16:27:27.008Z,10.13
2018-02-16T16:29:54.916Z,7.65
2018-02-16T16:32:22.801Z,6.22
2018-02-16T16:34:50.684Z,6.80
2018-02-16T16:37:18.607Z,7.00
2018-02-16T16:39:46.492Z,7.05
2018-02-16T16:42:14.490Z,12.20
2018-02-16T16:44:42.408Z,10.73
2018-02-16T16:47:10.294Z,13.90
2018-02-16T16:49:38.240Z,8.07
2018-02-16T16:52:06.161Z,6.85
2018-02-16T16:54:34.048Z,14.95
2018-02-16T16:57:01.936Z,10.10
2018-02-16T16:59:29.869Z,7.57
2018-02-16T17:01:57.760Z,7.50
2018-02-16T17:04:25.652Z,7.70
2018-02-16T17:06:53.564Z,9.85
2018-02-16T17:09:21.470Z,7.47
2018-02-16T17:11:49.364Z,7.25
2018-02-16T17:14:17.279Z,11.05
2018-02-16T17:16:45.172Z,5.68
2018-02-16T17:19:13.067Z,7.62
2018-02-16T17:21:41.002Z,7.22
2018-02-16T17:24:08.899Z,6.45
2018-02-16T17:26:36.783Z,10.23
2018-02-16T17:29:04.708Z,5.37
2018-02-16T17:31:32.596Z,8.55
2018-02-16T17:34:00.480Z,7.87
2018-02-16T17:36:28.384Z,6.90
2018-02-16T17:38:56.277Z,13.43
2018-02-16T17:41:24.161Z,10.65
2018-02-16T17:43:52.100Z,4.95
2018-02-16T17:46:21.057Z,3.28
2018-02-16T17:48:48.935Z,3.92
2018-02-16T17:51:16.844Z,7.30
2018-02-16T17:53:44.727Z,12.60
2018-02-16T17:56:12.625Z,11.60
2018-02-16T17:58:40.536Z,15.15
2018-02-16T18:01:08.456Z,10.23
2018-02-16T18:03:36.347Z,10.20
2018-02-16T18:06:04.255Z,7.55
2018-02-16T18:08:32.160Z,10.05
2018-02-16T18:11:00.066Z,10.43
2018-02-16T18:13:31.291Z,16.15
2018-02-16T18:15:59.178Z,8.93
2018-02-16T18:18:27.076Z,11.05
2018-02-16T18:20:54.999Z,9.85
2018-02-16T18:23:22.900Z,17.37
2018-02-16T18:25:50.808Z,10.35
2018-02-16T18:28:18.688Z,14.30
2018-02-16T18:30:46.586Z,11.65
2018-02-16T18:33:15.531Z,13.52
2018-02-16T18:35:43.412Z,17.40
2018-02-16T18:38:11.316Z,10.70
2018-02-16T18:40:39.219Z,11.68
2018-02-16T18:43:07.104Z,8.43
2018-02-16T18:45:35.016Z,9.05
2018-02-16T18:48:02.932Z,8.13
2018-02-16T18:50:30.823Z,6.55
2018-02-16T18:52:58.720Z,14.02
2018-02-16T18:55:27.456Z,7.00
2018-02-16T18:57:55.444Z,13.05
2018-02-16T19:00:24.425Z,14.25
2018-02-16T19:02:53.009Z,10.27
2018-02-16T19:05:20.908Z,11.82
2018-02-16T19:07:48.808Z,12.23
2018-02-16T19:10:16.716Z,8.27
2018-02-16T19:12:44.606Z,8.90
2018-02-16T19:15:12.500Z,5.65
2018-02-16T19:17:40.403Z,12.63
2018-02-16T19:20:08.337Z,7.28
2018-02-16T19:22:36.241Z,19.45
2018-02-16T19:25:04.142Z,6.85
2018-02-16T19:27:32.028Z,6.32
2018-02-16T19:29:59.929Z,5.80
2018-02-16T19:32:27.846Z,6.97
2018-02-16T19:34:55.914Z,10.13
2018-02-16T19:37:23.837Z,7.03
2018-02-16T19:39:51.758Z,9.88
2018-02-16T19:42:19.640Z,8.13
2018-02-16T19:44:47.528Z,5.20
2018-02-16T19:47:15.560Z,8.38
2018-02-16T19:49:43.457Z,6.18
2018-02-16T19:52:11.349Z,4.45
2018-02-16T19:54:39.256Z,8.35
2018-02-16T19:57:07.143Z,9.55
2018-02-16T19:59:35.048Z,9.15
2018-02-16T20:02:02.968Z,9.68
2018-02-16T20:04:30.875Z,13.15
2018-02-16T20:06:59.832Z,15.05
2018-02-16T20:09:27.744Z,7.87
2018-02-16T20:11:55.660Z,13.05
2018-02-16T20:14:23.556Z,10.98
2018-02-16T20:16:51.548Z,4.90
2018-02-16T20:19:19.436Z,6.37
2018-02-16T20:21:47.332Z,11.02
2018-02-16T20:24:15.243Z,10.63
2018-02-16T20:26:43.140Z,10.40
2018-02-16T20:29:11.026Z,11.38
2018-02-16T20:31:38.929Z,6.65
2018-02-16T20:34:06.849Z,9.98
2018-02-16T20:36:34.788Z,6.70
2018-02-16T20:39:02.796Z,9.23
2018-02-16T20:41:31.737Z,10.43
2018-02-16T20:43:59.641Z,10.80
2018-02-16T20:46:27.571Z,11.15
2018-02-16T20:48:55.472Z,5.43
2018-02-16T20:51:23.597Z,9.48
2018-02-16T20:53:51.687Z,9.32
2018-02-16T20:56:19.568Z,9.57
2018-02-16T20:58:47.500Z,6.55
2018-02-16T21:01:15.416Z,5.72
2018-02-16T21:03:43.320Z,6.65
2018-02-16T21:06:11.228Z,10.45
2018-02-16T21:08:39.155Z,10.68
2018-02-16T21:11:07.065Z,11.70
2018-02-16T21:13:34.970Z,10.30
2018-02-16T21:16:02.874Z,7.37
2018-02-16T21:18:30.776Z,9.90
2018-02-16T21:20:58.680Z,11.55
2018-02-16T21:23:26.592Z,8.40
2018-02-16T21:25:54.476Z,9.02
2018-02-16T21:28:22.369Z,7.97
2018-02-16T21:30:50.264Z,9.07
2018-02-16T21:33:18.160Z,9.88
2018-02-16T21:35:46.096Z,9.50
2018-02-16T21:38:14.057Z,7.72
2018-02-16T21:40:41.981Z,11.25
2018-02-16T21:43:09.899Z,8.70
2018-02-16T21:45:37.796Z,5.90
2018-02-16T21:48:05.736Z,5.28
2018-02-16T21:50:33.616Z,10.65
2018-02-16T21:53:01.539Z,8.75
2018-02-16T21:55:29.428Z,9.80
2018-02-16T21:57:57.332Z,17.10
2018-02-16T22:00:25.244Z,12.60
2018-02-16T22:02:53.136Z,8.40
2018-02-16T22:05:21.020Z,9.30
2018-02-16T22:07:48.928Z,7.45
2018-02-16T22:10:16.813Z,6.75
2018-02-16T22:12:44.712Z,9.90
2018-02-16T22:15:13.680Z,10.07
2018-02-16T22:17:41.556Z,9.57
2018-02-16T22:20:09.457Z,8.70
2018-02-16T22:22:37.374Z,18.12
2018-02-16T22:25:05.300Z,14.02
2018-02-16T22:27:33.192Z,11.70
2018-02-16T22:30:01.100Z,10.63
2018-02-16T22:32:29.004Z,11.90
2018-02-16T22:34:56.903Z,11.23
2018-02-16T22:37:24.800Z,12.30
2018-02-16T22:39:52.704Z,8.90
2018-02-16T22:42:20.612Z,13.45
2018-02-16T22:44:48.544Z,7.35
2018-02-16T22:47:16.503Z,10.00
2018-02-16T22:49:44.555Z,12.85
2018-02-16T22:52:12.464Z,4.80
2018-02-16T22:54:40.348Z,8.15
2018-02-16T22:57:08.272Z,10.68
2018-02-16T22:59:36.184Z,10.20
2018-02-16T23:02:05.096Z,10.95
2018-02-16T23:04:34.492Z,12.25
2018-02-16T23:07:02.387Z,6.50
2018-02-16T23:09:30.284Z,15.07
2018-02-16T23:11:58.188Z,10.82
2018-02-16T23:14:26.094Z,12.52
2018-02-16T23:16:54.007Z,9.02
2018-02-16T23:19:21.908Z,8.85
2018-02-16T23:21:49.824Z,7.30
2018-02-16T23:24:17.736Z,12.82
2018-02-16T23:26:45.612Z,6.82
2018-02-16T23:29:13.519Z,14.80
2018-02-16T23:31:41.399Z,10.98
2018-02-16T23:34:09.275Z,12.95
2018-02-16T23:36:37.199Z,8.65
2018-02-16T23:39:05.540Z,8.95
2018-02-16T23:41:33.603Z,9.35
2018-02-16T23:44:01.460Z,9.57
2018-02-16T23:46:29.352Z,6.70
2018-02-16T23:48:57.248Z,7.78
2018-02-16T23:51:25.153Z,8.20
2018-02-16T23:53:53.061Z,6.50
2018-02-16T23:56:20.950Z,13.88
2018-02-16T23:58:48.877Z,7.30
